Time;durP1;ratioP1;P1;durP2;ratioP2;P2;SDS_P1;SDS_P2;PMS_P1;PMS_P2;Temp;Humidity;BMP_temperature;BMP_pressure;BME280_temperature;BME280_humidity;BME280_pressure;Samples;Min_cycle;Max_cycle;Signal;HPM_P1;HPM_P2
2022/04/04 00:01:11;;;;;;;;;5.50;3.50;;;;;;;;5090458;27;45495;-68
2022/04/04 00:03:36;;;;;;;;;4.75;4.75;;;;;;;;5094533;27;45394;-68
2022/04/04 00:06:01;;;;;;;;;4.00;3.25;;;;;;;;5094297;27;46394;-68
2022/04/04 00:08:27;;;;;;;;;3.00;3.00;;;;;;;;5092994;27;45508;-68
2022/04/04 00:10:52;;;;;;;;;3.00;3.00;;;;;;;;5093245;27;45362;-68
2022/04/04 00:13:18;;;;;;;;;5.00;5.00;;;;;;;;5094351;27;45285;-68
2022/04/04 00:15:43;;;;;;;;;3.25;3.00;;;;;;;;5097078;27;45528;-68
2022/04/04 00:18:10;;;;;;;;;6.50;3.75;;;;;;;;5098390;27;45388;-68
2022/04/04 00:20:35;;;;;;;;;5.50;4.50;;;;;;;;5096998;27;45355;-68
2022/04/04 00:23:00;;;;;;;;;5.00;3.75;;;;;;;;5098159;27;45358;-67
2022/04/04 00:25:26;;;;;;;;;6.75;4.50;;;;;;;;5088939;27;45462;-68
2022/04/04 00:27:51;;;;;;;;;4.00;4.00;;;;;;;;5098067;27;45389;-67
2022/04/04 00:30:16;;;;;;;;;3.25;3.25;;;;;;;;5098662;27;45481;-68
2022/04/04 00:32:42;;;;;;;;;4.25;4.25;;;;;;;;5098639;27;45363;-68
2022/04/04 00:35:07;;;;;;;;;4.00;4.00;;;;;;;;5097511;27;45505;-68
2022/04/04 00:37:34;;;;;;;;;4.25;4.25;;;;;;;;5096753;27;45411;-68
2022/04/04 00:39:59;;;;;;;;;4.75;4.00;;;;;;;;5081353;27;45316;-68
2022/04/04 00:42:24;;;;;;;;;3.25;3.25;;;;;;;;5098414;27;45470;-68
2022/04/04 00:44:51;;;;;;;;;4.50;4.50;;;;;;;;5096049;27;46063;-68
2022/04/04 00:47:16;;;;;;;;;5.25;5.25;;;;;;;;5094757;27;45586;-68
2022/04/04 00:49:41;;;;;;;;;4.00;4.00;;;;;;;;5093943;27;45513;-68
2022/04/04 00:52:07;;;;;;;;;5.50;4.50;;;;;;;;5095123;27;46324;-68
2022/04/04 00:54:32;;;;;;;;;4.75;4.00;;;;;;;;5098171;27;47397;-68
2022/04/04 00:57:00;;;;;;;;;4.75;4.75;;;;;;;;5096073;27;45318;-68
2022/04/04 00:59:26;;;;;;;;;4.50;4.50;;;;;;;;5097115;27;45339;-68
2022/04/04 01:01:51;;;;;;;;;5.25;5.00;;;;;;;;5094415;27;45382;-68
2022/04/04 01:04:16;;;;;;;;;4.00;4.00;;;;;;;;5092257;27;45516;-68
2022/04/04 01:06:43;;;;;;;;;4.50;4.00;;;;;;;;5096862;27;45537;-68
2022/04/04 01:09:13;;;;;;;;;5.00;5.00;;;;;;;;5097826;27;45401;-68
2022/04/04 01:11:59;;;;;;;;;4.25;4.25;;;;;;;;5094896;27;45541;-68
2022/04/04 01:14:24;;;;;;;;;4.50;4.00;;;;;;;;5093058;27;46134;-68
2022/04/04 01:16:49;;;;;;;;;4.25;4.25;;;;;;;;5097033;27;45366;-68
2022/04/04 01:19:14;;;;;;;;;6.75;6.00;;;;;;;;5093455;27;45447;-68
2022/04/04 01:21:39;;;;;;;;;8.50;5.75;;;;;;;;5097016;27;45200;-68
2022/04/04 01:24:05;;;;;;;;;5.00;4.50;;;;;;;;5095695;27;45502;-68
2022/04/04 01:26:31;;;;;;;;;6.00;5.75;;;;;;;;5095312;27;45383;-67
2022/04/04 01:28:56;;;;;;;;;3.75;3.75;;;;;;;;5093858;27;45291;-68
2022/04/04 01:31:21;;;;;;;;;5.50;4.00;;;;;;;;5094546;27;45445;-68
2022/04/04 01:33:46;;;;;;;;;6.00;5.00;;;;;;;;5096330;27;47180;-68
2022/04/04 01:36:12;;;;;;;;;4.00;4.00;;;;;;;;5074286;28;45587;-68
2022/04/04 01:38:37;;;;;;;;;3.50;3.00;;;;;;;;5091813;27;45477;-68
2022/04/04 01:41:02;;;;;;;;;5.25;5.25;;;;;;;;5094997;27;45551;-68
2022/04/04 01:43:27;;;;;;;;;5.00;5.00;;;;;;;;5084361;27;45517;-68
2022/04/04 01:48:37;;;;;;;;;6.00;6.00;;;;;;;;5095916;27;45439;-68
2022/04/04 01:51:03;;;;;;;;;4.50;4.50;;;;;;;;5095979;27;45423;-67
2022/04/04 01:53:29;;;;;;;;;4.75;4.75;;;;;;;;5094799;27;46061;-68
2022/04/04 01:55:57;;;;;;;;;5.00;4.00;;;;;;;;5093712;27;45351;-68
2022/04/04 01:58:23;;;;;;;;;4.25;4.00;;;;;;;;5093737;27;45587;-68
2022/04/04 02:00:49;;;;;;;;;2.75;2.25;;;;;;;;5095136;27;45474;-68
2022/04/04 02:03:14;;;;;;;;;4.00;4.00;;;;;;;;5097249;27;46567;-68
2022/04/04 02:05:39;;;;;;;;;7.75;6.25;;;;;;;;5094668;27;45395;-69
2022/04/04 02:08:04;;;;;;;;;6.75;5.00;;;;;;;;5094766;27;45466;-68
2022/04/04 02:10:30;;;;;;;;;5.00;4.75;;;;;;;;5093073;27;45344;-68
2022/04/04 02:12:55;;;;;;;;;6.50;4.50;;;;;;;;5095017;27;45662;-68
2022/04/04 02:15:21;;;;;;;;;7.50;6.00;;;;;;;;5097195;27;45374;-68
2022/04/04 02:17:46;;;;;;;;;6.50;5.00;;;;;;;;5093245;27;45530;-68
2022/04/04 02:20:11;;;;;;;;;7.75;6.00;;;;;;;;5094545;27;45472;-68
2022/04/04 02:22:37;;;;;;;;;5.50;4.00;;;;;;;;5093507;27;46305;-68
2022/04/04 02:25:02;;;;;;;;;6.00;6.00;;;;;;;;5094526;27;45386;-68
2022/04/04 02:27:27;;;;;;;;;4.00;4.00;;;;;;;;5097439;27;45340;-68
2022/04/04 02:29:52;;;;;;;;;4.75;4.75;;;;;;;;5093608;27;45289;-68
2022/04/04 02:32:19;;;;;;;;;6.25;5.00;;;;;;;;5094957;27;47342;-68
2022/04/04 02:34:44;;;;;;;;;6.75;5.50;;;;;;;;5096159;27;45574;-68
2022/04/04 02:37:10;;;;;;;;;8.75;7.50;;;;;;;;5094971;27;45404;-68
2022/04/04 02:39:35;;;;;;;;;1.75;1.75;;;;;;;;5095700;27;45434;-67
2022/04/04 02:42:00;;;;;;;;;6.00;6.00;;;;;;;;5095222;27;46206;-68
2022/04/04 02:44:26;;;;;;;;;5.75;5.50;;;;;;;;5092816;27;45310;-67
2022/04/04 02:46:51;;;;;;;;;6.75;6.00;;;;;;;;5094633;27;45520;-67
2022/04/04 02:49:17;;;;;;;;;5.75;5.75;;;;;;;;5093317;27;45556;-68
2022/04/04 02:51:42;;;;;;;;;5.75;5.50;;;;;;;;5095083;27;46519;-68
2022/04/04 02:54:07;;;;;;;;;4.00;4.00;;;;;;;;5095780;27;45433;-68
2022/04/04 02:56:33;;;;;;;;;6.50;4.25;;;;;;;;5095682;27;45413;-68
2022/04/04 02:59:01;;;;;;;;;5.25;5.00;;;;;;;;5093858;27;45468;-68
2022/04/04 03:01:27;;;;;;;;;5.00;5.00;;;;;;;;5091686;27;46748;-68
2022/04/04 03:03:53;;;;;;;;;7.00;6.00;;;;;;;;5093953;27;45675;-68
2022/04/04 03:06:18;;;;;;;;;5.00;5.00;;;;;;;;5096859;27;45451;-68
2022/04/04 03:08:43;;;;;;;;;8.25;4.00;;;;;;;;5093387;27;45327;-68
2022/04/04 03:11:08;;;;;;;;;4.75;4.75;;;;;;;;5093906;27;45464;-68
2022/04/04 03:13:34;;;;;;;;;5.50;5.50;;;;;;;;5094012;27;45280;-67
2022/04/04 03:15:59;;;;;;;;;5.75;4.25;;;;;;;;5094247;27;45508;-67
2022/04/04 03:18:25;;;;;;;;;5.00;5.00;;;;;;;;5096232;27;45609;-68
2022/04/04 03:20:51;;;;;;;;;6.50;6.50;;;;;;;;5091847;27;45446;-68
2022/04/04 03:23:16;;;;;;;;;5.50;5.50;;;;;;;;5091169;27;45427;-68
2022/04/04 03:25:42;;;;;;;;;4.25;4.25;;;;;;;;5094048;27;45432;-68
2022/04/04 03:28:07;;;;;;;;;6.00;5.00;;;;;;;;5092282;27;45381;-68
2022/04/04 03:30:33;;;;;;;;;4.00;4.00;;;;;;;;5095341;27;46401;-68
2022/04/04 03:32:58;;;;;;;;;6.00;6.00;;;;;;;;5092014;27;45489;-68
2022/04/04 03:35:25;;;;;;;;;5.00;5.00;;;;;;;;5076403;27;45427;-68
2022/04/04 03:37:52;;;;;;;;;6.25;5.00;;;;;;;;5093755;27;45422;-68
2022/04/04 03:40:19;;;;;;;;;5.50;5.50;;;;;;;;5091010;27;46145;-68
2022/04/04 03:42:44;;;;;;;;;5.75;5.00;;;;;;;;5093958;27;49186;-68
2022/04/04 03:45:11;;;;;;;;;8.00;7.50;;;;;;;;5095463;27;45323;-68
2022/04/04 03:47:37;;;;;;;;;6.25;6.25;;;;;;;;5093698;27;45299;-68
2022/04/04 03:50:02;;;;;;;;;5.00;5.00;;;;;;;;5096644;27;47012;-67
2022/04/04 03:52:27;;;;;;;;;5.25;5.25;;;;;;;;5094831;27;45473;-68
2022/04/04 03:54:53;;;;;;;;;5.50;5.50;;;;;;;;5096599;27;45473;-68
2022/04/04 03:57:18;;;;;;;;;6.00;6.00;;;;;;;;5098115;27;45491;-68
2022/04/04 03:59:44;;;;;;;;;4.00;4.00;;;;;;;;5093956;27;45485;-68
2022/04/04 04:02:09;;;;;;;;;5.00;5.00;;;;;;;;5090589;27;45503;-68
2022/04/04 04:04:34;;;;;;;;;6.25;5.50;;;;;;;;5080049;27;45489;-68
2022/04/04 04:07:00;;;;;;;;;6.00;6.00;;;;;;;;5095876;27;45294;-68
2022/04/04 04:09:25;;;;;;;;;6.00;5.25;;;;;;;;5098781;27;45449;-68
2022/04/04 04:11:50;;;;;;;;;6.50;6.50;;;;;;;;5094647;27;45283;-68
2022/04/04 04:14:16;;;;;;;;;5.25;5.00;;;;;;;;5096289;27;45283;-68
2022/04/04 04:16:41;;;;;;;;;6.75;6.50;;;;;;;;5096561;27;45497;-68
2022/04/04 04:20:19;;;;;;;;;5.00;4.50;;;;;;;;5081242;27;46480;-67
2022/04/04 04:21:51;;;;;;;;;5.75;5.25;;;;;;;;5096346;27;45493;-68
2022/04/04 04:24:17;;;;;;;;;5.50;5.50;;;;;;;;5098980;27;45357;-68
2022/04/04 04:26:42;;;;;;;;;5.25;5.25;;;;;;;;5096844;27;45466;-68
2022/04/04 04:29:07;;;;;;;;;7.00;7.00;;;;;;;;5096191;27;46339;-68
2022/04/04 04:31:32;;;;;;;;;6.50;6.25;;;;;;;;5096337;27;45547;-68
2022/04/04 04:33:58;;;;;;;;;5.00;5.00;;;;;;;;5097210;27;45596;-68
2022/04/04 04:36:23;;;;;;;;;7.00;7.00;;;;;;;;5098914;27;45294;-68
2022/04/04 04:38:48;;;;;;;;;4.25;4.25;;;;;;;;5096970;27;46239;-68
2022/04/04 04:41:13;;;;;;;;;5.75;4.25;;;;;;;;5097623;27;45374;-68
2022/04/04 04:43:41;;;;;;;;;6.50;6.50;;;;;;;;5079033;27;45410;-68
2022/04/04 04:46:06;;;;;;;;;7.50;6.75;;;;;;;;5096246;27;45401;-68
2022/04/04 04:48:32;;;;;;;;;6.00;5.50;;;;;;;;5098348;27;45394;-68
2022/04/04 04:50:57;;;;;;;;;4.50;4.50;;;;;;;;5095851;27;45469;-68
2022/04/04 04:53:22;;;;;;;;;6.00;6.00;;;;;;;;5096396;27;45488;-68
2022/04/04 04:55:47;;;;;;;;;5.50;5.00;;;;;;;;5093620;27;45537;-68
2022/04/04 04:58:12;;;;;;;;;5.25;4.25;;;;;;;;5093512;27;46326;-68
2022/04/04 05:00:38;;;;;;;;;5.25;4.00;;;;;;;;5097574;27;45427;-67
2022/04/04 05:05:46;;;;;;;;;5.50;5.50;;;;;;;;5095990;27;45449;-68
2022/04/04 05:08:12;;;;;;;;;5.50;4.75;;;;;;;;5094525;27;45929;-68
2022/04/04 05:10:37;;;;;;;;;5.25;5.00;;;;;;;;5095495;27;45462;-68
2022/04/04 05:13:02;;;;;;;;;4.75;4.75;;;;;;;;5094451;27;45430;-68
2022/04/04 05:15:28;;;;;;;;;5.75;5.75;;;;;;;;5093499;27;45324;-68
2022/04/04 05:17:53;;;;;;;;;5.00;5.00;;;;;;;;5093017;27;46706;-68
2022/04/04 05:20:19;;;;;;;;;6.50;6.50;;;;;;;;5094804;27;45438;-67
2022/04/04 05:22:44;;;;;;;;;5.75;4.75;;;;;;;;5096101;27;45387;-68
2022/04/04 05:25:09;;;;;;;;;6.00;6.00;;;;;;;;5096067;27;45515;-68
2022/04/04 05:27:36;;;;;;;;;5.00;5.00;;;;;;;;5096513;27;46315;-68
2022/04/04 05:30:01;;;;;;;;;5.25;5.25;;;;;;;;5095268;27;45382;-68
2022/04/04 05:32:29;;;;;;;;;6.00;6.00;;;;;;;;5095133;27;45878;-69
2022/04/04 05:34:54;;;;;;;;;5.25;5.25;;;;;;;;5086411;27;45393;-67
2022/04/04 05:37:19;;;;;;;;;4.25;3.75;;;;;;;;5095387;27;46185;-67
2022/04/04 05:39:44;;;;;;;;;6.00;6.00;;;;;;;;5095743;27;45440;-67
2022/04/04 05:42:10;;;;;;;;;5.75;5.75;;;;;;;;5097374;27;45397;-67
2022/04/04 05:44:35;;;;;;;;;6.50;5.75;;;;;;;;5095356;27;45585;-70
2022/04/04 05:47:00;;;;;;;;;4.00;4.00;;;;;;;;5092201;27;46534;-70
2022/04/04 05:49:25;;;;;;;;;3.00;3.00;;;;;;;;5095523;27;45461;-69
2022/04/04 05:51:51;;;;;;;;;4.00;4.00;;;;;;;;5095517;27;45597;-71
2022/04/04 05:54:16;;;;;;;;;7.25;6.00;;;;;;;;5097785;27;45247;-73
2022/04/04 05:56:44;;;;;;;;;4.25;4.25;;;;;;;;5089166;27;45356;-70
2022/04/04 05:59:09;;;;;;;;;4.50;4.25;;;;;;;;5084622;27;45402;-70
2022/04/04 06:01:35;;;;;;;;;4.50;4.50;;;;;;;;5083267;27;45439;-70
2022/04/04 06:04:00;;;;;;;;;7.00;6.00;;;;;;;;5078947;27;45262;-70
2022/04/04 06:06:25;;;;;;;;;5.00;5.00;;;;;;;;5097084;27;45678;-70
2022/04/04 06:08:51;;;;;;;;;8.75;5.50;;;;;;;;5093753;27;45509;-71
2022/04/04 06:11:16;;;;;;;;;5.00;5.00;;;;;;;;5093285;27;45395;-71
2022/04/04 06:13:42;;;;;;;;;5.50;5.50;;;;;;;;5092951;27;45588;-69
2022/04/04 06:16:09;;;;;;;;;4.75;4.00;;;;;;;;5092711;27;45430;-70
2022/04/04 06:18:35;;;;;;;;;4.00;4.00;;;;;;;;5092911;27;45431;-69
2022/04/04 06:21:02;;;;;;;;;3.00;3.00;;;;;;;;5095727;27;45426;-71
2022/04/04 06:23:28;;;;;;;;;7.75;5.50;;;;;;;;5094728;27;45555;-71
2022/04/04 06:25:53;;;;;;;;;5.25;5.00;;;;;;;;5094117;27;45441;-72
2022/04/04 06:28:18;;;;;;;;;4.25;4.25;;;;;;;;5092162;27;45355;-68
2022/04/04 06:30:44;;;;;;;;;6.00;5.00;;;;;;;;5094900;27;45372;-68
2022/04/04 06:33:09;;;;;;;;;6.75;5.50;;;;;;;;5095222;27;45533;-67
2022/04/04 06:35:35;;;;;;;;;4.25;4.25;;;;;;;;5092386;27;45997;-68
2022/04/04 06:38:01;;;;;;;;;6.25;6.00;;;;;;;;5093986;27;45342;-67
2022/04/04 06:40:27;;;;;;;;;5.00;5.00;;;;;;;;5094452;27;45484;-67
2022/04/04 06:42:52;;;;;;;;;4.25;4.25;;;;;;;;5094529;27;45914;-67
2022/04/04 06:45:17;;;;;;;;;5.00;4.50;;;;;;;;5094648;27;45496;-68
2022/04/04 06:47:43;;;;;;;;;5.00;5.00;;;;;;;;5095080;27;45271;-67
2022/04/04 06:50:08;;;;;;;;;6.00;4.00;;;;;;;;5094154;27;45192;-67
2022/04/04 06:52:34;;;;;;;;;4.50;4.50;;;;;;;;5092995;27;45470;-68
2022/04/04 06:55:00;;;;;;;;;4.25;4.25;;;;;;;;5094417;27;46552;-67
2022/04/04 06:57:25;;;;;;;;;5.25;5.25;;;;;;;;5096616;27;45358;-67
2022/04/04 06:59:50;;;;;;;;;5.00;4.75;;;;;;;;5093836;27;45426;-67
2022/04/04 07:02:15;;;;;;;;;4.25;4.25;;;;;;;;5094396;27;45315;-67
2022/04/04 07:04:41;;;;;;;;;2.25;2.25;;;;;;;;5094095;27;45564;-68
2022/04/04 07:07:07;;;;;;;;;3.00;3.00;;;;;;;;5093660;27;45529;-67
2022/04/04 07:09:33;;;;;;;;;7.50;5.50;;;;;;;;5096153;27;45392;-67
2022/04/04 07:11:58;;;;;;;;;4.25;4.25;;;;;;;;5092568;27;45301;-67
2022/04/04 07:14:24;;;;;;;;;4.75;4.50;;;;;;;;5093428;27;45355;-67
2022/04/04 07:16:52;;;;;;;;;5.00;5.00;;;;;;;;5094147;27;45287;-67
2022/04/04 07:19:18;;;;;;;;;6.00;6.00;;;;;;;;5094974;27;45418;-67
2022/04/04 07:21:43;;;;;;;;;4.25;3.25;;;;;;;;5092186;27;45272;-68
2022/04/04 07:24:09;;;;;;;;;6.50;3.50;;;;;;;;5095410;27;45450;-68
2022/04/04 07:26:35;;;;;;;;;5.25;4.50;;;;;;;;5093945;27;45529;-67
2022/04/04 07:29:00;;;;;;;;;3.00;3.00;;;;;;;;5091842;27;45573;-67
2022/04/04 07:31:25;;;;;;;;;5.50;5.25;;;;;;;;5093039;27;45468;-67
2022/04/04 07:33:51;;;;;;;;;5.75;4.50;;;;;;;;5093635;27;45376;-68
2022/04/04 07:36:17;;;;;;;;;4.25;4.25;;;;;;;;5095175;27;45640;-67
2022/04/04 07:38:42;;;;;;;;;3.50;3.25;;;;;;;;5092606;27;45407;-68
2022/04/04 07:41:07;;;;;;;;;6.00;4.50;;;;;;;;5093728;27;45493;-68
2022/04/04 07:43:33;;;;;;;;;7.00;5.00;;;;;;;;5093126;27;45720;-68
2022/04/04 07:46:01;;;;;;;;;5.75;5.75;;;;;;;;5091988;27;45397;-68
2022/04/04 07:48:26;;;;;;;;;5.00;4.50;;;;;;;;5095359;27;45322;-68
2022/04/04 07:50:52;;;;;;;;;9.50;4.25;;;;;;;;5093032;27;45304;-68
2022/04/04 07:53:23;;;;;;;;;4.00;4.00;;;;;;;;5091734;27;45363;-68
2022/04/04 07:55:48;;;;;;;;;5.75;4.25;;;;;;;;5093412;27;45430;-67
2022/04/04 07:58:16;;;;;;;;;5.75;4.25;;;;;;;;5094309;27;45468;-67
2022/04/04 08:00:41;;;;;;;;;8.25;4.75;;;;;;;;5094557;27;45432;-68
2022/04/04 08:03:06;;;;;;;;;6.50;5.00;;;;;;;;5094447;27;46424;-67
2022/04/04 08:05:32;;;;;;;;;4.00;4.00;;;;;;;;5091858;27;45304;-68
2022/04/04 08:07:57;;;;;;;;;8.75;5.00;;;;;;;;5091075;27;45374;-68
2022/04/04 08:10:22;;;;;;;;;4.25;3.00;;;;;;;;5093302;27;45530;-68
2022/04/04 08:12:52;;;;;;;;;5.00;5.00;;;;;;;;5093209;27;46429;-67
2022/04/04 08:15:18;;;;;;;;;5.25;4.50;;;;;;;;5095537;27;45441;-67
2022/04/04 08:17:43;;;;;;;;;4.50;4.50;;;;;;;;5090951;27;45369;-67
2022/04/04 08:20:08;;;;;;;;;5.50;4.25;;;;;;;;5093194;27;45448;-67
2022/04/04 08:22:40;;;;;;;;;5.25;4.00;;;;;;;;5093039;27;45344;-67
2022/04/04 08:25:06;;;;;;;;;2.75;2.75;;;;;;;;5086985;27;45424;-67
2022/04/04 08:27:31;;;;;;;;;3.50;3.50;;;;;;;;5095266;27;45373;-67
2022/04/04 08:29:56;;;;;;;;;3.50;3.50;;;;;;;;5093166;27;45214;-67
2022/04/04 08:32:22;;;;;;;;;4.00;4.00;;;;;;;;5092702;27;46147;-67
2022/04/04 08:34:47;;;;;;;;;4.00;4.00;;;;;;;;5095989;27;45493;-67
2022/04/04 08:37:12;;;;;;;;;5.00;5.00;;;;;;;;5096305;27;45423;-68
2022/04/04 08:39:40;;;;;;;;;4.00;4.00;;;;;;;;5097690;27;45255;-68
2022/04/04 08:42:06;;;;;;;;;5.25;4.00;;;;;;;;5095901;27;45642;-68
2022/04/04 08:44:32;;;;;;;;;5.75;5.00;;;;;;;;5094332;27;45326;-68
2022/04/04 08:46:59;;;;;;;;;5.50;4.50;;;;;;;;5094644;27;45473;-68
2022/04/04 08:49:24;;;;;;;;;5.00;5.00;;;;;;;;5096183;27;46152;-68
2022/04/04 08:51:50;;;;;;;;;2.25;2.25;;;;;;;;5096912;27;46666;-67
2022/04/04 08:54:15;;;;;;;;;3.75;3.75;;;;;;;;5096587;27;45439;-68
2022/04/04 08:56:42;;;;;;;;;4.75;4.75;;;;;;;;5093580;27;45514;-68
2022/04/04 08:59:07;;;;;;;;;4.50;4.00;;;;;;;;5094474;27;45577;-67
2022/04/04 09:01:33;;;;;;;;;4.50;3.50;;;;;;;;5095881;27;45499;-68
2022/04/04 09:04:01;;;;;;;;;3.75;3.75;;;;;;;;5095866;27;45430;-67
2022/04/04 09:06:27;;;;;;;;;5.25;5.00;;;;;;;;5080264;27;45565;-68
2022/04/04 09:08:52;;;;;;;;;4.50;4.00;;;;;;;;5077596;27;45442;-67
2022/04/04 09:11:18;;;;;;;;;4.00;2.75;;;;;;;;5095316;27;45412;-67
2022/04/04 09:13:43;;;;;;;;;6.00;4.50;;;;;;;;5095648;27;45491;-68
2022/04/04 09:16:08;;;;;;;;;3.00;3.00;;;;;;;;5095994;27;45398;-67
2022/04/04 09:18:40;;;;;;;;;4.50;3.75;;;;;;;;5098261;27;45422;-67
2022/04/04 09:21:06;;;;;;;;;2.50;2.50;;;;;;;;5097037;27;45291;-67
2022/04/04 09:23:35;;;;;;;;;4.00;4.00;;;;;;;;5096259;27;45362;-67
2022/04/04 09:26:01;;;;;;;;;6.00;3.50;;;;;;;;5088946;27;45473;-67
2022/04/04 09:28:27;;;;;;;;;3.50;3.50;;;;;;;;5096216;27;45481;-68
2022/04/04 09:31:06;;;;;;;;;4.25;2.75;;;;;;;;5095562;27;45508;-67
2022/04/04 09:33:35;;;;;;;;;3.50;2.25;;;;;;;;5093692;27;45392;-68
2022/04/04 09:36:01;;;;;;;;;5.25;4.00;;;;;;;;5096183;27;45487;-67
2022/04/04 09:38:26;;;;;;;;;8.25;3.25;;;;;;;;5093632;27;45284;-67
2022/04/04 09:40:51;;;;;;;;;5.00;4.00;;;;;;;;5093448;27;45420;-68
2022/04/04 09:43:16;;;;;;;;;3.00;3.00;;;;;;;;5095299;27;45491;-68
2022/04/04 09:45:43;;;;;;;;;3.00;3.00;;;;;;;;5095395;27;45359;-68
2022/04/04 09:48:09;;;;;;;;;3.75;3.75;;;;;;;;5096683;27;45789;-68
2022/04/04 09:50:38;;;;;;;;;5.00;3.00;;;;;;;;5093680;27;45560;-67
2022/04/04 09:53:08;;;;;;;;;3.75;3.25;;;;;;;;5093519;27;45252;-67
2022/04/04 09:55:34;;;;;;;;;3.75;3.75;;;;;;;;5092850;27;45550;-67
2022/04/04 09:58:01;;;;;;;;;3.25;3.25;;;;;;;;5094470;27;45375;-67
2022/04/04 10:00:27;;;;;;;;;2.50;2.50;;;;;;;;5089076;27;46026;-67
2022/04/04 10:02:56;;;;;;;;;2.00;2.00;;;;;;;;5093185;27;45493;-68
2022/04/04 10:05:26;;;;;;;;;5.00;5.00;;;;;;;;5093676;27;45287;-67
2022/04/04 10:07:52;;;;;;;;;3.00;3.00;;;;;;;;5092644;27;45458;-67
2022/04/04 10:10:17;;;;;;;;;4.00;3.00;;;;;;;;5094446;27;46671;-67
2022/04/04 10:12:43;;;;;;;;;3.00;3.00;;;;;;;;5095537;27;45350;-68
2022/04/04 10:15:08;;;;;;;;;3.00;3.00;;;;;;;;5095281;27;45443;-68
2022/04/04 10:17:34;;;;;;;;;4.00;4.00;;;;;;;;5093023;27;45543;-67
2022/04/04 10:20:00;;;;;;;;;3.00;3.00;;;;;;;;5093219;27;49232;-67
2022/04/04 10:22:27;;;;;;;;;3.00;3.00;;;;;;;;5094577;27;45537;-68
2022/04/04 10:24:53;;;;;;;;;3.00;3.00;;;;;;;;5094833;27;45267;-67
2022/04/04 10:27:20;;;;;;;;;4.25;3.75;;;;;;;;5097168;27;45410;-68
2022/04/04 10:29:47;;;;;;;;;2.00;2.00;;;;;;;;5094361;27;45442;-67
2022/04/04 10:32:31;;;;;;;;;6.00;3.00;;;;;;;;5092657;27;45447;-67
2022/04/04 10:34:57;;;;;;;;;3.00;3.00;;;;;;;;5093521;27;45533;-68
2022/04/04 10:37:26;;;;;;;;;1.00;1.00;;;;;;;;5091697;27;45323;-67
2022/04/04 10:39:51;;;;;;;;;4.00;3.00;;;;;;;;5094313;27;46505;-67
2022/04/04 10:42:23;;;;;;;;;2.00;2.00;;;;;;;;5094295;27;45741;-67
2022/04/04 10:44:49;;;;;;;;;3.25;3.25;;;;;;;;5092678;27;45438;-67
2022/04/04 10:47:21;;;;;;;;;3.25;3.00;;;;;;;;5094040;27;45486;-67
2022/04/04 10:49:46;;;;;;;;;3.25;3.25;;;;;;;;5092493;27;46236;-67
2022/04/04 10:52:12;;;;;;;;;3.50;3.25;;;;;;;;5092882;27;45405;-68
2022/04/04 10:54:38;;;;;;;;;3.00;3.00;;;;;;;;5096083;27;45304;-67
2022/04/04 10:57:14;;;;;;;;;6.25;2.25;;;;;;;;5094885;27;45390;-68
2022/04/04 10:59:39;;;;;;;;;4.00;4.00;;;;;;;;5095112;27;46473;-67
2022/04/04 11:02:05;;;;;;;;;4.00;3.00;;;;;;;;5093212;27;45474;-67
2022/04/04 11:04:31;;;;;;;;;3.00;3.00;;;;;;;;5094674;27;45569;-67
2022/04/04 11:10:36;;;;;;;;;3.50;2.00;;;;;;;;5036797;28;46611;-67
2022/04/04 11:13:04;;;;;;;;;4.00;3.00;;;;;;;;5051107;28;45555;-67
2022/04/04 11:15:49;;;;;;;;;3.00;3.00;;;;;;;;5053292;28;45391;-67
2022/04/04 11:18:14;;;;;;;;;2.00;2.00;;;;;;;;5050974;28;45469;-67
2022/04/04 11:20:47;;;;;;;;;3.00;3.00;;;;;;;;5049105;28;46169;-67
2022/04/04 11:23:12;;;;;;;;;4.00;1.75;;;;;;;;5049109;28;45514;-67
2022/04/04 11:25:48;;;;;;;;;4.00;3.00;;;;;;;;5032927;28;45539;-67
2022/04/04 11:28:15;;;;;;;;;4.50;4.00;;;;;;;;5050438;28;45393;-67
2022/04/04 11:30:40;;;;;;;;;2.25;2.00;;;;;;;;5052437;28;45480;-67
2022/04/04 11:33:11;;;;;;;;;2.75;2.75;;;;;;;;5051378;28;45481;-67
2022/04/04 11:35:36;;;;;;;;;2.75;2.75;;;;;;;;5033060;28;45361;-67
2022/04/04 11:38:03;;;;;;;;;2.50;2.00;;;;;;;;5050492;28;45735;-67
2022/04/04 11:40:37;;;;;;;;;3.25;2.00;;;;;;;;5060332;27;45673;-67
2022/04/04 11:43:07;;;;;;;;;3.50;2.00;;;;;;;;5076305;27;45370;-67
2022/04/04 11:45:36;;;;;;;;;3.00;2.25;;;;;;;;5074372;27;45680;-67
2022/04/04 11:48:02;;;;;;;;;4.75;2.00;;;;;;;;5091231;27;45543;-67
2022/04/04 11:50:30;;;;;;;;;3.00;2.75;;;;;;;;5087054;27;45652;-67
2022/04/04 11:52:59;;;;;;;;;1.75;1.75;;;;;;;;5091744;27;45533;-67
2022/04/04 11:55:25;;;;;;;;;1.75;1.75;;;;;;;;5093919;27;45448;-67
2022/04/04 11:57:56;;;;;;;;;2.25;2.25;;;;;;;;5093388;27;45309;-67
2022/04/04 12:00:23;;;;;;;;;2.00;2.00;;;;;;;;5082270;27;47281;-67
2022/04/04 12:02:48;;;;;;;;;2.25;2.25;;;;;;;;5091756;27;45632;-67
2022/04/04 12:05:14;;;;;;;;;2.00;2.00;;;;;;;;5090430;27;45225;-67
2022/04/04 12:07:40;;;;;;;;;3.00;3.00;;;;;;;;5094763;27;45435;-67
2022/04/04 12:10:06;;;;;;;;;3.25;2.00;;;;;;;;5098514;27;46453;-68
2022/04/04 12:12:31;;;;;;;;;3.25;3.00;;;;;;;;5099449;27;45433;-67
2022/04/04 12:14:56;;;;;;;;;2.50;2.50;;;;;;;;5098353;27;45495;-68
2022/04/04 12:17:25;;;;;;;;;1.50;1.50;;;;;;;;5098546;27;45358;-67
2022/04/04 12:19:52;;;;;;;;;2.25;2.25;;;;;;;;5096931;27;45577;-67
2022/04/04 12:25:02;;;;;;;;;2.50;2.50;;;;;;;;5096345;27;45449;-67
2022/04/04 12:27:28;;;;;;;;;2.50;2.50;;;;;;;;5098678;27;45306;-66
2022/04/04 12:30:00;;;;;;;;;3.00;1.75;;;;;;;;5096467;27;45464;-67
2022/04/04 12:32:26;;;;;;;;;2.00;2.00;;;;;;;;5096123;27;45537;-67
2022/04/04 12:34:55;;;;;;;;;1.25;1.25;;;;;;;;5093489;27;45629;-68
2022/04/04 12:37:30;;;;;;;;;2.75;2.75;;;;;;;;5094946;27;45477;-68
2022/04/04 12:40:11;;;;;;;;;4.75;2.00;;;;;;;;5095893;27;46447;-68
2022/04/04 12:42:36;;;;;;;;;1.50;1.50;;;;;;;;5094044;27;45353;-68
2022/04/04 12:45:01;;;;;;;;;2.00;2.00;;;;;;;;5078478;27;45456;-68
2022/04/04 12:47:27;;;;;;;;;1.75;1.75;;;;;;;;5096078;27;45382;-69
2022/04/04 12:50:11;;;;;;;;;2.00;2.00;;;;;;;;5096030;27;46030;-68
2022/04/04 12:52:54;;;;;;;;;2.25;2.25;;;;;;;;5093939;27;45299;-67
2022/04/04 12:55:19;;;;;;;;;2.50;2.50;;;;;;;;5080701;27;45342;-68
2022/04/04 12:57:44;;;;;;;;;2.00;2.00;;;;;;;;5096975;27;45346;-67
2022/04/04 13:00:10;;;;;;;;;2.00;2.00;;;;;;;;5097418;27;46667;-67
2022/04/04 13:02:37;;;;;;;;;2.00;2.00;;;;;;;;5097408;27;45383;-67
2022/04/04 13:05:15;;;;;;;;;2.50;1.75;;;;;;;;5090955;27;45484;-68
2022/04/04 13:07:50;;;;;;;;;3.50;2.00;;;;;;;;5093668;27;45482;-68
2022/04/04 13:10:15;;;;;;;;;2.25;2.25;;;;;;;;5095367;27;46431;-68
2022/04/04 13:12:41;;;;;;;;;2.00;2.00;;;;;;;;5087811;27;45242;-68
2022/04/04 13:15:07;;;;;;;;;2.00;2.00;;;;;;;;5096631;27;45304;-68
2022/04/04 13:17:36;;;;;;;;;1.25;1.25;;;;;;;;5094289;27;45512;-67
2022/04/04 13:20:03;;;;;;;;;1.25;1.25;;;;;;;;5094308;27;46702;-68
2022/04/04 13:22:28;;;;;;;;;2.00;2.00;;;;;;;;5095723;27;45379;-67
2022/04/04 13:24:54;;;;;;;;;2.75;1.75;;;;;;;;5096041;27;45647;-67
2022/04/04 13:27:23;;;;;;;;;2.00;2.00;;;;;;;;5098083;27;45432;-67
2022/04/04 13:29:49;;;;;;;;;2.75;2.00;;;;;;;;5095664;27;46271;-68
2022/04/04 13:32:14;;;;;;;;;1.50;1.50;;;;;;;;5092786;27;45401;-67
2022/04/04 13:34:41;;;;;;;;;2.50;2.50;;;;;;;;5093247;27;45458;-67
2022/04/04 13:37:06;;;;;;;;;1.00;1.00;;;;;;;;5093101;27;45453;-67
2022/04/04 13:39:31;;;;;;;;;1.75;1.75;;;;;;;;5097919;27;46189;-68
2022/04/04 13:41:57;;;;;;;;;1.75;1.25;;;;;;;;5093267;27;45430;-67
2022/04/04 13:44:22;;;;;;;;;3.50;2.00;;;;;;;;5094626;27;45308;-67
2022/04/04 13:46:47;;;;;;;;;2.00;2.00;;;;;;;;5092814;27;45402;-66
2022/04/04 13:49:13;;;;;;;;;3.00;1.75;;;;;;;;5092887;27;45464;-67
2022/04/04 13:51:38;;;;;;;;;3.75;2.00;;;;;;;;5096620;27;45371;-68
2022/04/04 13:54:03;;;;;;;;;2.00;2.00;;;;;;;;5094435;27;45228;-68
2022/04/04 13:56:31;;;;;;;;;3.00;1.25;;;;;;;;5094115;27;45783;-67
2022/04/04 13:58:57;;;;;;;;;2.00;2.00;;;;;;;;5092200;27;45510;-67
2022/04/04 14:01:24;;;;;;;;;1.00;1.00;;;;;;;;5094767;27;45357;-67
2022/04/04 14:03:51;;;;;;;;;1.00;1.00;;;;;;;;5095376;27;45394;-68
2022/04/04 14:06:17;;;;;;;;;3.75;2.25;;;;;;;;5095258;27;45345;-68
2022/04/04 14:08:42;;;;;;;;;1.00;1.00;;;;;;;;5093783;27;46027;-68
2022/04/04 14:11:08;;;;;;;;;2.00;2.00;;;;;;;;5094601;27;45359;-68
2022/04/04 14:13:34;;;;;;;;;2.00;1.75;;;;;;;;5094414;27;45703;-68
2022/04/04 14:15:59;;;;;;;;;1.00;1.00;;;;;;;;5081351;27;45695;-68
2022/04/04 14:18:25;;;;;;;;;1.75;1.75;;;;;;;;5096113;27;46040;-68
2022/04/04 14:20:50;;;;;;;;;2.25;2.00;;;;;;;;5092342;27;45523;-68
2022/04/04 14:23:16;;;;;;;;;1.00;1.00;;;;;;;;5076832;27;45357;-67
2022/04/04 14:25:41;;;;;;;;;3.75;2.75;;;;;;;;5095857;27;45580;-68
2022/04/04 14:28:06;;;;;;;;;2.00;2.00;;;;;;;;5092218;27;46304;-68
2022/04/04 14:30:32;;;;;;;;;2.00;2.00;;;;;;;;5096529;27;45509;-68
2022/04/04 14:32:57;;;;;;;;;1.50;1.50;;;;;;;;5092671;27;45409;-68
2022/04/04 14:35:22;;;;;;;;;2.00;2.00;;;;;;;;5093094;27;45342;-68
2022/04/04 14:37:48;;;;;;;;;1.00;1.00;;;;;;;;5094435;27;46218;-67
2022/04/04 14:40:14;;;;;;;;;3.00;1.00;;;;;;;;5092219;27;45445;-68
2022/04/04 14:42:42;;;;;;;;;2.00;2.00;;;;;;;;5096163;27;45331;-68
2022/04/04 14:45:08;;;;;;;;;2.00;2.00;;;;;;;;5095125;27;45518;-68
2022/04/04 14:47:33;;;;;;;;;2.00;2.00;;;;;;;;5092337;27;47086;-68
2022/04/04 14:49:59;;;;;;;;;3.00;2.00;;;;;;;;5092328;27;45232;-68